27°C Temp
18°C Dewpoint
58% Humidity
Temperature
11 KM/H
7 MPH
6 KTS
10°
Due North

Wind Speed
Clear
Conditions
Pressure 1005.92 (hPa) - 29.7 (in)
Visibility 6.2 (mi) - 10.0 (km)

Current Conditions
YWLM
Location Newcastle 18(km)
Metar :YWLM 182300Z 01006KT CAVOK 27/18 Q1006
Tue 19th February 10:00 am

Airport
  Metar Aviation API Data Provided by https://www.checkwx.com/ PHP scripts by weather34.com ©2019